Time;durP1;ratioP1;P1;durP2;ratioP2;P2;SDS_P1;SDS_P2;PMS_P1;PMS_P2;Temp;Humidity;BMP_temperature;BMP_pressure;BME280_temperature;BME280_humidity;BME280_pressure;Samples;Min_cycle;Max_cycle;Signal;HPM_P1;HPM_P2
2022/05/26 00:00:10;;;;;;;;;1.00;1.00;;;;;18.97;51.57;101787.03;5077053;28;45424;-70
2022/05/26 00:02:36;;;;;;;;;1.67;1.00;;;;;18.95;51.47;101792.38;5077668;28;45358;-71
2022/05/26 00:05:02;;;;;;;;;0.67;0.67;;;;;18.46;51.92;101708.19;5077164;28;45248;-71
2022/05/26 00:07:28;;;;;;;;;1.00;1.00;;;;;18.70;51.66;101748.50;5077636;28;45455;-71
2022/05/26 00:09:54;;;;;;;;;2.00;1.00;;;;;18.57;51.58;101732.75;5077203;28;45752;-70
2022/05/26 00:12:19;;;;;;;;;0.00;0.00;;;;;18.82;51.56;101781.06;5077737;28;45550;-71
2022/05/26 00:14:45;;;;;;;;;1.00;1.00;;;;;18.88;51.64;101785.41;5077744;27;45508;-69
2022/05/26 00:17:11;;;;;;;;;1.67;0.67;;;;;18.44;51.85;101705.56;5077095;28;46034;-70
2022/05/26 00:19:37;;;;;;;;;0.00;0.00;;;;;18.89;52.00;101787.16;5077565;28;45807;-71
2022/05/26 00:22:03;;;;;;;;;1.33;0.67;;;;;18.92;52.05;101796.88;5077458;28;45456;-71
2022/05/26 00:24:29;;;;;;;;;1.00;1.00;;;;;18.93;51.97;101799.47;5077595;28;45243;-70
2022/05/26 00:26:55;;;;;;;;;1.00;0.67;;;;;18.67;52.38;101753.84;5077148;28;45504;-72
2022/05/26 00:29:21;;;;;;;;;1.00;1.00;;;;;18.78;52.07;101765.22;5077238;28;45334;-70
2022/05/26 00:31:47;;;;;;;;;1.33;1.00;;;;;18.93;52.23;101791.50;5077683;28;45436;-71
2022/05/26 00:34:13;;;;;;;;;2.00;1.00;;;;;18.92;52.32;101794.22;5077383;28;45424;-70
2022/05/26 00:36:38;;;;;;;;;1.00;1.00;;;;;18.55;52.23;101737.22;5076595;28;46623;-71
2022/05/26 00:39:10;;;;;;;;;2.00;1.00;;;;;18.70;52.39;101759.09;5076948;28;45497;-70
2022/05/26 00:41:41;;;;;;;;;1.00;1.00;;;;;18.79;52.51;101780.22;5077141;28;45395;-69
2022/05/26 00:44:07;;;;;;;;;0.67;0.67;;;;;18.86;52.07;101805.78;5076592;28;45401;-70
2022/05/26 00:46:50;;;;;;;;;1.67;0.33;;;;;18.73;52.06;101769.69;5058186;28;47730;-72
2022/05/26 00:49:33;;;;;;;;;1.00;1.00;;;;;18.35;52.22;101728.69;5077055;28;45387;-71
2022/05/26 00:51:58;;;;;;;;;1.00;1.00;;;;;18.76;52.01;101796.19;5076841;28;45510;-72
2022/05/26 00:54:25;;;;;;;;;0.00;0.00;;;;;18.65;52.01;101783.09;5076441;28;45531;-72
2022/05/26 00:57:08;;;;;;;;;1.00;1.00;;;;;18.49;52.34;101758.53;5076049;28;46168;-71
2022/05/26 01:00:01;;;;;;;;;0.00;0.00;;;;;18.77;52.14;101805.91;5056562;28;45500;-71
2022/05/26 01:02:34;;;;;;;;;2.00;0.33;;;;;18.75;51.97;101797.97;5056564;28;45449;-69
2022/05/26 01:05:16;;;;;;;;;0.33;0.33;;;;;18.75;51.86;101799.75;5056666;28;45547;-70
2022/05/26 01:07:42;;;;;;;;;1.00;1.00;;;;;18.67;52.05;101785.69;5076406;28;45444;-70
2022/05/26 01:10:10;;;;;;;;;0.33;0.33;;;;;18.72;51.74;101802.41;5076792;28;45563;-71
2022/05/26 01:12:36;;;;;;;;;2.00;1.33;;;;;18.56;51.72;101777.91;5076700;28;45381;-71
2022/05/26 01:15:08;;;;;;;;;1.00;1.00;;;;;18.69;51.86;101797.16;5076887;27;45429;-70
2022/05/26 01:18:06;;;;;;;;;1.67;1.00;;;;;18.41;51.54;101761.31;5076255;28;46560;-70
2022/05/26 01:20:54;;;;;;;;;0.00;0.00;;;;;18.70;51.81;101812.19;5055834;28;45318;-70
2022/05/26 01:23:47;;;;;;;;;1.00;1.00;;;;;18.70;51.67;101806.88;5056625;28;45464;-72
2022/05/26 01:26:28;;;;;;;;;0.00;0.00;;;;;18.72;51.60;101819.25;5056282;28;45323;-72
2022/05/26 01:29:24;;;;;;;;;3.33;1.00;;;;;18.74;51.75;101813.91;5055895;28;46603;-73
2022/05/26 04:08:36;;;;;;;;;15.33;13.00;;;;;15.99;63.91;101862.09;5069999;28;45945;-70
2022/05/26 04:11:03;;;;;;;;;11.00;10.00;;;;;16.28;63.11;101866.41;5052007;28;45473;-71
2022/05/26 04:13:30;;;;;;;;;6.33;6.00;;;;;16.26;62.31;101823.25;5053430;28;45526;-70
2022/05/26 04:15:56;;;;;;;;;3.00;3.00;;;;;16.72;62.14;101865.31;5052194;28;45397;-71
2022/05/26 04:18:23;;;;;;;;;6.00;1.33;;;;;16.99;61.05;101879.31;5051854;28;47216;-70
2022/05/26 04:20:48;;;;;;;;;1.00;1.00;;;;;17.14;60.91;101877.44;5052791;28;45414;-70
2022/05/26 04:23:14;;;;;;;;;1.00;1.00;;;;;17.11;60.26;101850.13;5053367;28;45471;-70
2022/05/26 04:25:40;;;;;;;;;0.67;0.67;;;;;17.08;59.76;101821.00;5053387;28;45433;-70
2022/05/26 04:28:06;;;;;;;;;0.00;0.00;;;;;17.16;59.34;101819.19;5053362;28;46009;-69
2022/05/26 04:30:33;;;;;;;;;0.00;0.00;;;;;17.32;58.71;101839.38;5051756;28;45365;-70
2022/05/26 04:32:59;;;;;;;;;1.00;1.00;;;;;17.69;58.70;101885.84;5053680;27;45583;-69
2022/05/26 04:35:26;;;;;;;;;0.00;0.00;;;;;17.75;58.56;101894.63;5052909;28;45484;-70
2022/05/26 04:37:51;;;;;;;;;0.00;0.00;;;;;17.55;57.79;101848.88;5051418;28;46697;-69
2022/05/26 04:40:17;;;;;;;;;0.00;0.00;;;;;17.63;57.40;101857.63;5053183;28;45398;-69
2022/05/26 04:42:46;;;;;;;;;2.00;1.00;;;;;17.83;57.10;101893.69;5053170;28;45392;-69
2022/05/26 04:45:13;;;;;;;;;2.00;0.00;;;;;17.78;56.84;101881.31;5053437;28;45453;-70
2022/05/26 04:47:39;;;;;;;;;1.00;0.00;;;;;17.88;56.67;101892.75;5052941;28;46168;-70
2022/05/26 04:50:05;;;;;;;;;1.00;1.00;;;;;17.89;56.27;101896.25;5051235;28;45272;-69
2022/05/26 04:52:31;;;;;;;;;1.00;1.00;;;;;17.94;56.20;101913.91;5052053;28;45272;-70
2022/05/26 04:54:56;;;;;;;;;0.00;0.00;;;;;17.88;56.40;101898.03;5053083;28;45512;-69
2022/05/26 04:57:24;;;;;;;;;0.00;0.00;;;;;18.00;56.22;101910.28;5052838;28;46428;-70
2022/05/26 04:59:50;;;;;;;;;1.67;1.00;;;;;18.04;55.94;101912.03;5052713;28;45465;-70
2022/05/26 05:02:27;;;;;;;;;1.67;1.00;;;;;17.92;55.71;101888.31;5052847;28;45295;-70
2022/05/26 05:04:53;;;;;;;;;1.00;0.00;;;;;17.89;55.57;101881.28;5051878;27;45532;-68
2022/05/26 05:07:20;;;;;;;;;2.33;0.67;;;;;17.93;55.55;101872.38;5050955;28;46739;-70
2022/05/26 05:09:47;;;;;;;;;1.00;1.00;;;;;18.16;55.52;101924.28;5052419;28;45343;-68
2022/05/26 05:12:18;;;;;;;;;3.33;0.67;;;;;18.13;55.31;101913.72;5053519;28;45475;-70
2022/05/26 05:14:46;;;;;;;;;1.00;1.00;;;;;18.18;55.24;101920.72;5054663;28;45395;-69
2022/05/26 05:17:14;;;;;;;;;2.00;0.67;;;;;18.20;55.21;101926.88;5052514;28;45594;-69
2022/05/26 05:19:40;;;;;;;;;1.33;1.00;;;;;18.01;55.04;101894.38;5040145;27;45437;-71
2022/05/26 05:22:08;;;;;;;;;1.00;1.00;;;;;18.22;54.99;101927.75;5037754;28;45434;-71
2022/05/26 05:24:42;;;;;;;;;1.00;1.00;;;;;18.09;55.10;101907.56;5038968;28;45538;-69
2022/05/26 05:27:17;;;;;;;;;1.00;1.00;;;;;17.56;54.96;101816.22;5038756;28;45580;-69
2022/05/26 05:29:46;;;;;;;;;1.00;1.00;;;;;18.28;54.98;101929.44;5038891;28;45240;-70
2022/05/26 05:32:21;;;;;;;;;1.00;1.00;;;;;18.17;54.80;101918.06;5039186;28;45247;-71
2022/05/26 05:34:52;;;;;;;;;0.33;0.33;;;;;18.31;54.82;101932.06;5040485;28;45574;-70
2022/05/26 05:37:18;;;;;;;;;0.00;0.00;;;;;18.28;54.44;101921.50;5038610;28;46429;-71
2022/05/26 05:39:44;;;;;;;;;0.00;0.00;;;;;18.26;54.53;101919.75;5037683;28;45399;-69
2022/05/26 05:42:10;;;;;;;;;0.00;0.00;;;;;18.30;54.42;101925.00;5039523;28;45492;-70
2022/05/26 05:44:36;;;;;;;;;1.00;1.00;;;;;18.35;54.42;101940.88;5039630;28;45249;-69
2022/05/26 05:47:02;;;;;;;;;0.33;0.33;;;;;18.33;54.26;101935.56;5037770;28;46438;-70
2022/05/26 05:49:34;;;;;;;;;0.00;0.00;;;;;18.32;54.48;101938.22;5039398;28;45325;-69
2022/05/26 05:52:11;;;;;;;;;0.67;0.00;;;;;18.35;54.00;101938.22;5039220;28;45237;-70
2022/05/26 05:54:37;;;;;;;;;0.33;0.00;;;;;18.35;54.08;101938.22;5039401;28;45409;-69
2022/05/26 05:57:04;;;;;;;;;1.00;1.00;;;;;18.41;54.27;101948.75;5038488;28;46310;-69
2022/05/26 05:59:29;;;;;;;;;1.00;1.00;;;;;18.40;53.97;101954.97;5038310;28;45488;-70
2022/05/26 06:01:55;;;;;;;;;2.33;1.00;;;;;18.25;54.31;101928.59;5039060;28;45872;-69
2022/05/26 06:04:21;;;;;;;;;1.00;1.00;;;;;18.41;54.04;101941.69;5037619;28;45519;-70
2022/05/26 06:06:47;;;;;;;;;1.00;1.00;;;;;18.42;54.13;101946.09;5043881;28;45358;-70
2022/05/26 06:09:17;;;;;;;;;2.33;0.00;;;;;18.46;53.92;101959.31;5058597;28;45405;-70
2022/05/26 06:11:47;;;;;;;;;0.00;0.00;;;;;18.27;53.89;101926.81;5058915;28;46093;-69
2022/05/26 06:14:13;;;;;;;;;1.67;1.00;;;;;18.27;53.82;101933.00;5058605;28;45410;-70
2022/05/26 06:16:40;;;;;;;;;0.00;0.00;;;;;18.35;53.92;101948.84;5058156;28;45360;-70
2022/05/26 06:19:05;;;;;;;;;0.33;0.00;;;;;18.04;53.97;101897.91;5058449;28;45537;-69
2022/05/26 06:21:37;;;;;;;;;2.00;0.67;;;;;18.43;53.88;101969.06;5058318;28;45370;-70
2022/05/26 06:24:03;;;;;;;;;0.33;0.33;;;;;18.43;53.64;101969.06;5058866;28;45430;-70
2022/05/26 06:26:29;;;;;;;;;0.00;0.00;;;;;18.50;53.74;101971.66;5058193;28;46395;-70
2022/05/26 06:37:13;;;;;;;;;0.33;0.00;;;;;18.57;53.42;101982.16;5056128;28;45481;-70
2022/05/26 06:37:14;;;;;;;;;4.00;1.00;;;;;18.49;53.07;101976.09;5057497;28;45658;-69
2022/05/26 06:39:40;;;;;;;;;1.00;1.00;;;;;18.34;53.28;101941.75;5039362;28;45825;-70
2022/05/26 06:42:07;;;;;;;;;1.00;1.00;;;;;18.61;53.04;101983.03;5057768;28;45599;-69
2022/05/26 06:44:39;;;;;;;;;0.00;0.00;;;;;18.73;52.46;101995.28;5057745;28;45353;-70
2022/05/26 06:47:12;;;;;;;;;0.00;0.00;;;;;18.69;52.36;101991.75;5058003;28;46242;-70
2022/05/26 06:49:46;;;;;;;;;0.00;0.00;;;;;18.58;52.47;101981.28;5057639;28;45561;-69
2022/05/26 06:52:13;;;;;;;;;0.00;0.00;;;;;18.36;52.56;101946.13;5057262;28;45730;-69
2022/05/26 06:54:42;;;;;;;;;0.00;0.00;;;;;18.73;53.42;102014.72;5055192;28;45517;-70
2022/05/26 06:57:10;;;;;;;;;0.00;0.00;;;;;18.47;53.48;101964.59;5056201;28;45561;-69
2022/05/26 06:59:37;;;;;;;;;0.00;0.00;;;;;18.41;53.93;101954.94;5054310;28;45377;-69
2022/05/26 07:02:05;;;;;;;;;0.00;0.00;;;;;18.69;54.54;102007.69;5038900;28;45830;-69
2022/05/26 07:04:32;;;;;;;;;0.00;0.00;;;;;18.68;55.37;102007.72;5058708;28;45435;-69
2022/05/26 07:06:57;;;;;;;;;2.00;0.00;;;;;18.27;55.56;101935.66;5039607;28;47339;-69
2022/05/26 07:09:25;;;;;;;;;0.00;0.00;;;;;18.68;55.47;101997.97;5053490;28;45470;-70
2022/05/26 07:11:51;;;;;;;;;0.33;0.00;;;;;18.74;54.92;102004.97;5039489;28;45767;-69
2022/05/26 07:14:16;;;;;;;;;2.67;0.00;;;;;18.89;53.87;102019.88;5038043;28;46179;-69
2022/05/26 07:16:45;;;;;;;;;0.00;0.00;;;;;18.89;53.16;102015.47;5055508;28;46103;-69
2022/05/26 07:19:15;;;;;;;;;0.00;0.00;;;;;18.93;53.17;102021.59;5057489;28;45671;-69
2022/05/26 07:21:43;;;;;;;;;0.00;0.00;;;;;18.94;52.70;102029.56;5057052;28;45318;-69
2022/05/26 07:24:10;;;;;;;;;0.00;0.00;;;;;18.88;52.56;102032.28;5057425;28;46150;-68
2022/05/26 07:26:36;;;;;;;;;0.00;0.00;;;;;18.52;52.94;101978.69;5057092;28;45461;-70
2022/05/26 07:29:03;;;;;;;;;0.00;0.00;;;;;18.88;52.88;102042.88;5057058;28;45425;-69
2022/05/26 07:31:29;;;;;;;;;0.00;0.00;;;;;18.83;53.08;102036.75;5057290;28;45366;-69
2022/05/26 07:33:55;;;;;;;;;0.00;0.00;;;;;18.88;52.76;102050.84;5056640;28;45536;-69
2022/05/26 07:41:56;;;;;;;;;0.00;0.00;;;;;18.91;52.00;102047.28;5056661;28;45431;-69
2022/05/26 07:44:23;;;;;;;;;0.00;0.00;;;;;18.65;51.82;101996.25;5057385;28;45473;-69
2022/05/26 07:46:49;;;;;;;;;0.00;0.00;;;;;18.98;51.52;102038.34;5056648;28;45700;-70
2022/05/26 07:49:15;;;;;;;;;0.00;0.00;;;;;19.15;51.36;102049.66;5057449;28;45319;-69
2022/05/26 07:51:41;;;;;;;;;1.00;0.00;;;;;19.23;51.31;102057.50;5057486;28;45286;-69
2022/05/26 07:54:07;;;;;;;;;0.00;0.00;;;;;19.20;51.26;102047.81;5057537;28;45336;-70
2022/05/26 07:56:36;;;;;;;;;0.00;0.00;;;;;19.19;52.30;102064.63;5055864;28;45819;-69
2022/05/26 07:59:04;;;;;;;;;0.00;0.00;;;;;18.84;53.19;102027.91;5057887;28;45474;-69
2022/05/26 08:01:31;;;;;;;;;0.00;0.00;;;;;19.06;53.77;102071.88;5056923;28;45505;-69
2022/05/26 08:03:56;;;;;;;;;0.00;0.00;;;;;19.08;53.56;102082.50;5056980;28;45233;-69
2022/05/26 08:06:22;;;;;;;;;0.00;0.00;;;;;18.84;53.80;102043.84;5056466;28;45536;-70
2022/05/26 08:08:49;;;;;;;;;1.00;0.00;;;;;19.05;53.82;102083.41;5056227;28;45574;-69
2022/05/26 08:11:15;;;;;;;;;0.00;0.00;;;;;19.17;53.57;102079.72;5056638;28;45427;-68
2022/05/26 08:13:41;;;;;;;;;1.33;0.00;;;;;19.22;53.21;102074.31;5056763;28;45396;-69
2022/05/26 08:16:06;;;;;;;;;1.00;0.00;;;;;19.32;53.32;102073.34;5056488;28;45401;-69
2022/05/26 08:18:33;;;;;;;;;1.00;0.00;;;;;19.48;53.51;102082.88;5056473;28;45411;-70
2022/05/26 08:21:10;;;;;;;;;1.00;1.00;;;;;19.64;52.95;102079.97;5056385;28;45339;-69
2022/05/26 08:23:36;;;;;;;;;0.00;0.00;;;;;19.65;52.82;102076.44;5056630;28;46104;-69
2022/05/26 08:26:08;;;;;;;;;0.00;0.00;;;;;19.74;52.79;102099.34;5056367;28;45504;-70
2022/05/26 08:28:34;;;;;;;;;0.67;0.67;;;;;19.72;53.21;102094.09;5056119;28;45442;-69
2022/05/26 08:31:01;;;;;;;;;0.33;0.33;;;;;19.44;53.42;102062.53;5056651;28;45280;-70
2022/05/26 08:33:28;;;;;;;;;1.00;1.00;;;;;19.64;53.53;102098.56;5056751;28;45425;-68
2022/05/26 08:36:02;;;;;;;;;2.00;1.00;;;;;19.52;54.62;102099.63;5056792;28;46322;-69
2022/05/26 08:38:28;;;;;;;;;2.00;2.00;;;;;19.55;54.19;102106.69;5057552;28;45476;-70
2022/05/26 08:40:54;;;;;;;;;3.00;1.33;;;;;19.46;54.47;102095.28;5057102;28;45455;-70
2022/05/26 08:43:24;;;;;;;;;3.33;2.00;;;;;19.20;54.86;102060.22;5057605;28;45521;-70
2022/05/26 08:45:52;;;;;;;;;3.00;3.00;;;;;19.42;54.78;102103.31;5057068;28;45657;-70
2022/05/26 08:48:42;;;;;;;;;1.33;1.33;;;;;19.44;54.75;102115.69;5057529;28;45613;-70
2022/05/26 08:51:15;;;;;;;;;2.00;0.00;;;;;19.38;54.73;102096.28;5056625;28;45483;-71
2022/05/26 08:53:42;;;;;;;;;3.00;3.00;;;;;18.89;54.54;102027.84;5057292;28;45569;-70
2022/05/26 08:56:11;;;;;;;;;2.33;2.33;;;;;19.50;54.07;102122.69;5058757;28;45482;-70
2022/05/26 08:58:46;;;;;;;;;2.00;2.00;;;;;19.42;53.89;102101.53;5059624;28;45296;-70
2022/05/26 09:01:16;;;;;;;;;2.67;2.67;;;;;19.38;54.37;102105.13;5059992;28;45517;-71
2022/05/26 09:03:42;;;;;;;;;3.00;3.00;;;;;18.55;54.74;101976.00;5059175;28;45656;-71
2022/05/26 09:06:11;;;;;;;;;3.67;2.00;;;;;19.50;54.47;102128.00;5059220;28;45285;-71
2022/05/26 09:14:27;;;;;;;;;3.00;2.67;;;;;19.58;53.64;102040.22;5059474;28;45474;-71
2022/05/26 09:17:06;;;;;;;;;2.33;2.33;;;;;19.96;52.86;102074.22;5059640;28;46280;-71
2022/05/26 09:19:42;;;;;;;;;3.33;2.00;;;;;20.28;52.84;102115.38;5059456;28;45482;-70
2022/05/26 09:22:39;;;;;;;;;2.00;2.00;;;;;20.11;52.92;102089.03;5058890;28;45355;-70
2022/05/26 09:25:11;;;;;;;;;2.33;2.33;;;;;20.17;53.08;102096.94;5039153;28;45577;-70
2022/05/26 09:27:38;;;;;;;;;2.67;2.67;;;;;20.13;52.13;102076.59;5057347;28;45496;-70
2022/05/26 09:30:27;;;;;;;;;2.33;1.67;;;;;20.33;51.81;102095.78;5059328;28;45351;-69
2022/05/26 09:32:53;;;;;;;;;4.33;2.00;;;;;19.97;51.79;102029.88;5058718;28;45472;-70
2022/05/26 09:35:19;;;;;;;;;2.00;2.00;;;;;20.58;51.36;102134.44;5038274;28;45386;-71
2022/05/26 09:37:47;;;;;;;;;1.00;1.00;;;;;20.36;50.53;102084.19;5038888;28;46180;-70
2022/05/26 09:40:21;;;;;;;;;2.00;2.00;;;;;20.69;50.67;102135.09;5039129;28;45305;-70
2022/05/26 09:42:58;;;;;;;;;3.00;2.00;;;;;20.67;49.55;102143.13;5048437;28;45398;-70
2022/05/26 09:45:24;;;;;;;;;1.00;1.00;;;;;20.64;49.65;102143.16;5058547;28;45547;-70
2022/05/26 09:48:01;;;;;;;;;3.00;1.67;;;;;20.59;50.06;102142.38;5058402;28;45498;-69
2022/05/26 09:50:33;;;;;;;;;1.33;1.00;;;;;20.61;49.66;102153.88;5058774;28;45224;-69
2022/05/26 09:53:00;;;;;;;;;2.00;2.00;;;;;20.39;49.32;102109.88;5058338;28;45299;-69
2022/05/26 09:55:32;;;;;;;;;2.00;2.00;;;;;20.62;49.02;102149.41;5057446;28;45537;-70
2022/05/26 09:58:28;;;;;;;;;1.00;1.00;;;;;20.63;48.90;102143.19;5057631;28;45354;-70
2022/05/26 10:00:59;;;;;;;;;2.67;1.00;;;;;20.54;50.42;102126.44;5058514;28;45375;-68
2022/05/26 10:04:02;;;;;;;;;2.00;2.00;;;;;20.82;50.04;102141.97;5058728;28;45501;-69
2022/05/26 10:06:41;;;;;;;;;2.33;2.00;;;;;20.93;48.97;102149.75;5058453;28;45562;-69
2022/05/26 10:09:31;;;;;;;;;1.67;1.67;;;;;21.06;49.40;102155.72;5058378;28;45527;-69
2022/05/26 10:12:24;;;;;;;;;1.00;1.00;;;;;21.17;48.60;102151.94;5058234;28;45388;-70
2022/05/26 10:15:05;;;;;;;;;1.00;1.00;;;;;21.25;47.19;102153.59;5057830;28;45461;-70
2022/05/26 10:17:54;;;;;;;;;2.00;2.00;;;;;21.23;47.23;102150.94;5058650;28;45555;-71
2022/05/26 10:20:43;;;;;;;;;1.00;1.00;;;;;21.20;46.71;102152.78;5051747;28;46683;-69
2022/05/26 10:23:17;;;;;;;;;2.67;1.00;;;;;21.18;47.04;102151.03;5038068;28;45771;-70
2022/05/26 10:25:55;;;;;;;;;2.00;1.00;;;;;20.93;46.55;102109.81;5038016;28;45541;-70
2022/05/26 10:28:51;;;;;;;;;1.00;1.00;;;;;21.23;46.98;102155.41;5044732;28;45557;-70
2022/05/26 10:31:23;;;;;;;;;1.00;1.00;;;;;21.27;46.61;102151.75;5056543;28;46490;-70
2022/05/26 10:34:23;;;;;;;;;3.00;1.67;;;;;21.30;46.30;102155.22;5054688;28;45481;-71
2022/05/26 10:37:09;;;;;;;;;2.00;2.00;;;;;21.34;46.07;102143.59;5055283;28;45627;-71
2022/05/26 10:40:20;;;;;;;;;1.00;1.00;;;;;21.39;45.98;102141.75;5057982;28;45513;-71
2022/05/26 10:42:49;;;;;;;;;1.00;1.00;;;;;21.57;45.20;102148.50;5034468;28;45556;-70
2022/05/26 10:45:25;;;;;;;;;1.00;0.00;;;;;21.46;45.17;102125.66;5057165;28;45584;-70
2022/05/26 10:48:05;;;;;;;;;2.00;2.00;;;;;21.53;45.38;102144.13;5057438;28;45444;-69
2022/05/26 10:50:47;;;;;;;;;1.00;1.00;;;;;21.55;44.79;102147.66;5050250;28;46582;-69
2022/05/26 10:53:23;;;;;;;;;1.00;1.00;;;;;21.25;45.43;102117.16;5052718;28;46089;-71
2022/05/26 10:56:07;;;;;;;;;1.00;1.00;;;;;21.44;45.81;102155.00;5054498;28;45458;-69
2022/05/26 10:58:37;;;;;;;;;2.00;1.00;;;;;21.46;46.03;102153.16;5051498;28;45291;-71
2022/05/26 11:01:11;;;;;;;;;1.00;1.00;;;;;21.45;45.39;102146.09;5037907;28;45537;-70
2022/05/26 11:03:46;;;;;;;;;1.00;1.00;;;;;21.32;45.68;102115.25;5053862;28;46199;-69
2022/05/26 11:06:34;;;;;;;;;2.00;2.00;;;;;21.61;45.23;102135.97;5051630;28;45630;-69
2022/05/26 11:09:14;;;;;;;;;1.00;1.00;;;;;21.53;45.02;102101.47;5054351;28;45520;-69
2022/05/26 11:11:54;;;;;;;;;1.00;1.00;;;;;22.00;44.41;102150.19;5052429;28;45539;-71
2022/05/26 11:17:52;;;;;;;;;1.33;1.33;;;;;22.10;43.87;102139.31;5017191;28;45403;-69
2022/05/26 11:20:32;;;;;;;;;1.00;1.00;;;;;22.06;43.81;102117.16;5055891;28;45346;-70
2022/05/26 11:23:03;;;;;;;;;2.33;1.00;;;;;22.16;43.42;102110.69;5048814;28;45407;-71
2022/05/26 11:25:32;;;;;;;;;1.67;1.00;;;;;22.35;43.11;102123.59;5056066;28;45795;-70
2022/05/26 11:28:39;;;;;;;;;2.00;1.00;;;;;22.36;43.00;102112.03;5054883;28;45304;-69
2022/05/26 11:37:01;;;;;;;;;2.00;2.00;;;;;22.48;43.46;102118.84;5055503;28;45468;-69
2022/05/26 11:39:37;;;;;;;;;1.00;1.00;;;;;22.42;42.99;102110.06;5055798;28;45498;-70
2022/05/26 11:42:25;;;;;;;;;3.00;1.50;;;;;22.42;42.94;102120.75;5036344;28;45471;-70
2022/05/26 11:45:29;;;;;;;;;2.00;1.00;;;;;21.93;42.89;102049.03;5054141;28;45473;-70
2022/05/26 11:48:26;;;;;;;;;1.00;1.00;;;;;22.39;42.67;102115.47;5053437;28;45868;-70
2022/05/26 11:51:02;;;;;;;;;1.00;1.00;;;;;22.31;42.07;102076.56;5053139;28;45619;-70
2022/05/26 11:53:28;;;;;;;;;1.00;1.00;;;;;22.62;42.07;102114.88;5056135;28;46094;-68
2022/05/26 11:56:04;;;;;;;;;1.00;1.00;;;;;22.47;41.63;102079.69;5055758;28;45442;-70
2022/05/26 11:58:44;;;;;;;;;1.00;1.00;;;;;22.58;41.73;102107.00;5055434;28;45337;-69
2022/05/26 12:01:21;;;;;;;;;1.00;1.00;;;;;22.69;41.97;102117.41;5055985;28;45465;-69
2022/05/26 12:03:50;;;;;;;;;1.00;1.00;;;;;22.59;42.42;102098.06;5055007;28;45529;-69
2022/05/26 12:06:38;;;;;;;;;1.00;1.00;;;;;22.70;42.65;102121.81;5055622;28;45453;-68
2022/05/26 12:09:05;;;;;;;;;1.00;1.00;;;;;22.72;42.77;102122.66;5049143;28;45441;-69
2022/05/26 12:12:08;;;;;;;;;1.00;1.00;;;;;22.72;42.80;102120.84;5054901;28;45652;-69
2022/05/26 12:14:46;;;;;;;;;0.33;0.00;;;;;22.77;42.68;102118.94;5052377;28;45650;-70
2022/05/26 12:17:31;;;;;;;;;1.00;1.00;;;;;22.89;42.47;102119.53;5052252;28;45426;-69
2022/05/26 12:20:25;;;;;;;;;1.00;1.00;;;;;22.96;41.97;102105.06;5055135;28;45729;-69
2022/05/26 12:22:55;;;;;;;;;0.00;0.00;;;;;22.66;41.71;102062.28;5055057;28;45483;-69
2022/05/26 12:25:32;;;;;;;;;1.00;1.00;;;;;23.00;41.63;102117.47;5055807;28;45256;-70
2022/05/26 12:28:05;;;;;;;;;0.00;0.00;;;;;23.02;41.77;102110.28;5053939;28;45655;-69
2022/05/26 12:30:46;;;;;;;;;1.00;1.00;;;;;23.00;41.63;102104.97;5057104;28;46277;-70
2022/05/26 12:33:20;;;;;;;;;1.00;1.00;;;;;23.01;41.62;102108.53;5052055;28;45557;-69
2022/05/26 12:36:07;;;;;;;;;1.00;1.00;;;;;22.96;41.70;102097.06;5056811;28;45331;-70
2022/05/26 12:38:51;;;;;;;;;2.67;1.00;;;;;22.94;41.57;102094.41;5040251;28;46441;-68
2022/05/26 12:41:51;;;;;;;;;1.00;1.00;;;;;22.92;41.61;102100.72;5056902;28;46334;-70
2022/05/26 12:44:29;;;;;;;;;0.00;0.00;;;;;22.88;42.31;102096.41;5058914;28;45244;-71
2022/05/26 12:47:08;;;;;;;;;0.00;0.00;;;;;22.87;42.41;102095.50;5058504;28;45545;-69
2022/05/26 12:50:07;;;;;;;;;2.33;1.00;;;;;22.93;42.59;102098.03;5057811;28;45599;-71
2022/05/26 12:53:00;;;;;;;;;0.00;0.00;;;;;23.06;42.34;102099.47;5055310;28;45525;-69
2022/05/26 12:55:29;;;;;;;;;1.33;1.00;;;;;22.74;42.71;102011.31;5052811;28;46157;-71
2022/05/26 12:58:09;;;;;;;;;0.50;0.50;;;;;23.28;42.38;102089.03;5038917;28;45555;-70
2022/05/26 13:00:42;;;;;;;;;1.00;1.00;;;;;23.35;42.47;102092.41;5055379;28;45720;-70
2022/05/26 13:03:39;;;;;;;;;1.00;1.00;;;;;23.35;42.46;102086.16;5040178;28;47075;-69
2022/05/26 13:06:24;;;;;;;;;1.00;1.00;;;;;22.98;42.35;102028.44;5057434;28;46064;-69
2022/05/26 13:08:59;;;;;;;;;1.00;1.00;;;;;23.27;42.01;102063.19;5056146;28;45483;-70
2022/05/26 13:11:36;;;;;;;;;1.00;1.00;;;;;23.15;41.73;102034.16;5056901;28;45219;-70
2022/05/26 13:14:08;;;;;;;;;1.00;1.00;;;;;23.42;41.53;102071.66;5056875;28;47121;-69
2022/05/26 13:16:41;;;;;;;;;1.00;1.00;;;;;23.48;41.69;102067.00;5057206;28;45312;-69
2022/05/26 13:19:10;;;;;;;;;1.00;1.00;;;;;23.58;41.59;102067.59;5058071;28;45360;-69
2022/05/26 13:21:35;;;;;;;;;1.00;1.00;;;;;23.68;41.81;102078.88;5051828;28;46451;-70
2022/05/26 13:24:02;;;;;;;;;2.00;2.00;;;;;23.77;41.77;102072.41;5057957;28;45596;-71
2022/05/26 13:26:27;;;;;;;;;1.00;1.00;;;;;23.77;41.95;102048.34;5040792;28;45510;-71
2022/05/26 13:28:56;;;;;;;;;1.00;1.00;;;;;23.80;42.12;102058.94;5058762;28;45220;-71
2022/05/26 13:34:13;;;;;;;;;1.00;1.00;;;;;23.81;41.33;102048.19;5056455;28;45803;-71
2022/05/26 13:36:47;;;;;;;;;1.00;1.00;;;;;23.93;41.97;102068.31;5056298;28;45593;-68
2022/05/26 13:39:25;;;;;;;;;1.33;1.33;;;;;23.97;41.50;102067.28;5056680;28;45397;-69
2022/05/26 13:41:54;;;;;;;;;0.00;0.00;;;;;23.75;40.95;102015.41;5055729;28;45390;-70
2022/05/26 13:44:39;;;;;;;;;2.75;1.00;;;;;23.39;40.80;101954.16;5056475;28;45919;-69
2022/05/26 13:47:08;;;;;;;;;1.50;0.75;;;;;24.01;41.24;102039.47;5050299;28;45393;-70
2022/05/26 13:49:36;;;;;;;;;1.00;1.00;;;;;24.06;40.62;102056.28;5056822;28;45918;-70
2022/05/26 13:52:19;;;;;;;;;1.00;1.00;;;;;23.98;40.31;102042.28;5057929;28;45432;-68
2022/05/26 13:54:52;;;;;;;;;1.00;1.00;;;;;24.03;39.90;102053.69;5055062;28;45702;-70
2022/05/26 13:57:27;;;;;;;;;2.00;2.00;;;;;23.98;40.27;102050.31;5056699;28;45532;-70
2022/05/26 13:59:55;;;;;;;;;1.67;1.67;;;;;23.88;41.16;102020.31;5056095;28;45260;-70
2022/05/26 14:02:31;;;;;;;;;1.00;1.00;;;;;23.94;40.85;102024.56;5057952;28;45418;-72
2022/05/26 14:05:13;;;;;;;;;2.00;1.00;;;;;23.67;41.18;101986.22;5056126;28;46248;-70
2022/05/26 14:07:45;;;;;;;;;1.00;1.00;;;;;24.04;40.59;102031.38;5055147;28;45529;-68
2022/05/26 14:10:21;;;;;;;;;1.00;1.00;;;;;23.57;40.98;101947.34;5049464;28;45444;-70
2022/05/26 14:13:09;;;;;;;;;0.25;0.25;;;;;24.10;40.77;102015.09;5054832;28;45387;-69
2022/05/26 14:16:07;;;;;;;;;2.00;1.00;;;;;24.20;40.07;102030.84;5039239;28;45536;-72
2022/05/26 14:18:40;;;;;;;;;1.00;1.00;;;;;23.51;40.38;101905.59;5051206;28;45789;-71
2022/05/26 14:21:11;;;;;;;;;1.00;1.00;;;;;24.09;39.46;101991.94;5058185;28;45395;-72
2022/05/26 14:23:54;;;;;;;;;1.00;1.00;;;;;24.15;40.02;101996.19;5058668;28;45446;-68
2022/05/26 14:26:28;;;;;;;;;1.00;1.00;;;;;24.35;39.83;102024.97;5055762;28;45460;-71
2022/05/26 14:29:03;;;;;;;;;1.00;1.00;;;;;24.23;39.69;101988.78;5056690;28;45381;-71
2022/05/26 14:31:30;;;;;;;;;1.33;1.33;;;;;23.87;39.99;101935.63;5058494;28;45503;-70
2022/05/26 14:34:21;;;;;;;;;2.00;0.75;;;;;24.15;40.31;101973.91;5059111;28;45300;-71
2022/05/26 14:36:47;;;;;;;;;1.00;1.00;;;;;24.20;40.19;101983.53;5056647;28;45647;-71
2022/05/26 14:39:13;;;;;;;;;1.67;1.67;;;;;24.09;40.01;101978.56;5054300;28;45572;-71
2022/05/26 14:41:39;;;;;;;;;1.67;1.67;;;;;24.12;39.58;101975.75;5055504;28;45471;-71
2022/05/26 14:44:07;;;;;;;;;1.00;1.00;;;;;23.89;40.37;101946.25;5055750;28;45434;-71
2022/05/26 14:46:33;;;;;;;;;1.00;1.00;;;;;24.04;40.10;101969.81;5055869;28;46456;-71
2022/05/26 14:48:59;;;;;;;;;2.25;2.25;;;;;24.33;39.75;102018.78;5056628;28;45463;-69
2022/05/26 14:51:31;;;;;;;;;2.75;1.50;;;;;24.37;40.17;102020.44;5055346;28;45808;-71
2022/05/26 14:56:44;;;;;;;;;1.50;1.50;;;;;23.97;39.60;101941.53;5052046;28;45808;-73
2022/05/26 14:59:10;;;;;;;;;3.75;1.25;;;;;24.47;40.08;102011.16;5054603;28;45294;-74